Terminal Aerodrome Forecast
Issued by NWS Newport/Morehead City, NC

Home | Current Version | Previous Version | Text Only | Print | Product List | Glossary Off
Versions: 1 2 3 4 5 6 7 8 9 10 11 12 13 14 15 16 17 18 19 20 21 22 23 24 25 26 27 28

000
FTUS42 KMHX 290537
TAFEWN
TAF
KEWN 290537Z 2906/3006 22005KT P6SM VCSH SCT025 BKN040
      TEMPO 2907/2908 4SM -TSRA BKN025CB
     FM290830 VRB04KT 5SM BR BKN005
     FM291400 36006KT P6SM SCT007 BKN015
     FM291600 36006KT P6SM SCT040
     FM300000 08005KT P6SM SCT040=

USA.gov is the U.S. government's official web portal to all federal, state and local government web resources and services.